sensor_id;sensor_type;location;lat;lon;timestamp;P1;durP1;ratioP1;P2;durP2;ratioP2
43835;SDS011;39345;43.964;25.340;2023-03-01T00:01:13;33.55;;;19.85;;
43835;SDS011;39345;43.964;25.340;2023-03-01T00:03:41;34.35;;;21.00;;
43835;SDS011;39345;43.964;25.340;2023-03-01T00:06:09;35.80;;;20.50;;
43835;SDS011;39345;43.964;25.340;2023-03-01T00:23:21;33.90;;;19.90;;
43835;SDS011;39345;43.964;25.340;2023-03-01T00:25:49;29.35;;;18.95;;
43835;SDS011;39345;43.964;25.340;2023-03-01T00:28:16;33.97;;;19.30;;
43835;SDS011;39345;43.964;25.340;2023-03-01T00:30:45;36.58;;;20.58;;
43835;SDS011;39345;43.964;25.340;2023-03-01T00:33:12;33.95;;;19.63;;
43835;SDS011;39345;43.964;25.340;2023-03-01T00:35:39;33.20;;;20.25;;
43835;SDS011;39345;43.964;25.340;2023-03-01T00:38:07;32.60;;;20.02;;
43835;SDS011;39345;43.964;25.340;2023-03-01T00:40:35;31.35;;;18.60;;
43835;SDS011;39345;43.964;25.340;2023-03-01T00:43:03;31.92;;;20.00;;
43835;SDS011;39345;43.964;25.340;2023-03-01T00:45:31;33.35;;;19.40;;
43835;SDS011;39345;43.964;25.340;2023-03-01T00:47:59;32.17;;;18.20;;
43835;SDS011;39345;43.964;25.340;2023-03-01T00:50:27;29.60;;;18.05;;
43835;SDS011;39345;43.964;25.340;2023-03-01T00:52:55;32.10;;;19.48;;
43835;SDS011;39345;43.964;25.340;2023-03-01T00:55:23;31.60;;;18.92;;
43835;SDS011;39345;43.964;25.340;2023-03-01T00:57:50;28.10;;;17.02;;
43835;SDS011;39345;43.964;25.340;2023-03-01T01:00:18;32.63;;;18.70;;
43835;SDS011;39345;43.964;25.340;2023-03-01T01:02:47;30.52;;;18.70;;
43835;SDS011;39345;43.964;25.340;2023-03-01T01:05:15;30.20;;;18.92;;
43835;SDS011;39345;43.964;25.340;2023-03-01T01:07:47;31.98;;;19.15;;
43835;SDS011;39345;43.964;25.340;2023-03-01T01:10:15;32.53;;;19.73;;
43835;SDS011;39345;43.964;25.340;2023-03-01T01:12:46;29.63;;;18.55;;
43835;SDS011;39345;43.964;25.340;2023-03-01T01:15:14;30.85;;;18.75;;
43835;SDS011;39345;43.964;25.340;2023-03-01T01:17:42;31.63;;;18.95;;
43835;SDS011;39345;43.964;25.340;2023-03-01T01:20:10;33.50;;;19.40;;
43835;SDS011;39345;43.964;25.340;2023-03-01T01:22:38;34.00;;;18.95;;
43835;SDS011;39345;43.964;25.340;2023-03-01T01:25:05;30.60;;;18.80;;
43835;SDS011;39345;43.964;25.340;2023-03-01T01:27:33;36.00;;;19.55;;
43835;SDS011;39345;43.964;25.340;2023-03-01T01:30:00;29.38;;;18.38;;
43835;SDS011;39345;43.964;25.340;2023-03-01T01:32:28;33.85;;;19.23;;
43835;SDS011;39345;43.964;25.340;2023-03-01T01:34:55;29.13;;;18.30;;
43835;SDS011;39345;43.964;25.340;2023-03-01T01:37:23;41.55;;;19.80;;
43835;SDS011;39345;43.964;25.340;2023-03-01T01:39:58;31.30;;;19.65;;
43835;SDS011;39345;43.964;25.340;2023-03-01T01:42:25;28.50;;;17.13;;
43835;SDS011;39345;43.964;25.340;2023-03-01T01:45:15;30.27;;;18.60;;
43835;SDS011;39345;43.964;25.340;2023-03-01T01:47:40;30.13;;;17.85;;
43835;SDS011;39345;43.964;25.340;2023-03-01T01:50:08;29.35;;;18.33;;
43835;SDS011;39345;43.964;25.340;2023-03-01T01:52:41;30.35;;;18.48;;
43835;SDS011;39345;43.964;25.340;2023-03-01T01:55:10;33.20;;;19.80;;
43835;SDS011;39345;43.964;25.340;2023-03-01T01:57:40;32.90;;;19.60;;
43835;SDS011;39345;43.964;25.340;2023-03-01T02:00:13;32.17;;;18.70;;
43835;SDS011;39345;43.964;25.340;2023-03-01T02:02:43;29.23;;;18.58;;
43835;SDS011;39345;43.964;25.340;2023-03-01T02:05:14;32.40;;;18.42;;
43835;SDS011;39345;43.964;25.340;2023-03-01T02:07:44;33.80;;;19.02;;
43835;SDS011;39345;43.964;25.340;2023-03-01T02:10:13;33.50;;;20.13;;
43835;SDS011;39345;43.964;25.340;2023-03-01T02:12:40;31.90;;;19.38;;
43835;SDS011;39345;43.964;25.340;2023-03-01T02:15:08;35.28;;;20.13;;
43835;SDS011;39345;43.964;25.340;2023-03-01T02:17:36;34.88;;;21.05;;
43835;SDS011;39345;43.964;25.340;2023-03-01T02:20:12;34.60;;;19.95;;
43835;SDS011;39345;43.964;25.340;2023-03-01T02:22:40;35.80;;;20.90;;
43835;SDS011;39345;43.964;25.340;2023-03-01T02:27:42;38.90;;;22.70;;
43835;SDS011;39345;43.964;25.340;2023-03-01T02:30:13;35.60;;;21.05;;
43835;SDS011;39345;43.964;25.340;2023-03-01T02:32:40;37.40;;;22.20;;
43835;SDS011;39345;43.964;25.340;2023-03-01T02:35:09;36.25;;;21.35;;
43835;SDS011;39345;43.964;25.340;2023-03-01T02:37:37;37.40;;;22.00;;
43835;SDS011;39345;43.964;25.340;2023-03-01T02:40:07;36.08;;;21.08;;
43835;SDS011;39345;43.964;25.340;2023-03-01T02:42:41;36.58;;;21.63;;
43835;SDS011;39345;43.964;25.340;2023-03-01T02:45:10;35.97;;;21.08;;
43835;SDS011;39345;43.964;25.340;2023-03-01T02:47:38;37.00;;;22.73;;
43835;SDS011;39345;43.964;25.340;2023-03-01T02:50:53;34.75;;;22.58;;
43835;SDS011;39345;43.964;25.340;2023-03-01T02:55:25;35.83;;;20.70;;
43835;SDS011;39345;43.964;25.340;2023-03-01T02:57:53;36.17;;;20.30;;
43835;SDS011;39345;43.964;25.340;2023-03-01T03:00:24;32.83;;;19.20;;
43835;SDS011;39345;43.964;25.340;2023-03-01T03:02:53;40.28;;;23.80;;
43835;SDS011;39345;43.964;25.340;2023-03-01T03:05:25;40.65;;;23.13;;
43835;SDS011;39345;43.964;25.340;2023-03-01T03:07:56;40.63;;;23.50;;
43835;SDS011;39345;43.964;25.340;2023-03-01T03:10:31;40.42;;;22.63;;
43835;SDS011;39345;43.964;25.340;2023-03-01T03:13:03;39.10;;;23.00;;
43835;SDS011;39345;43.964;25.340;2023-03-01T03:15:31;37.38;;;22.13;;
43835;SDS011;39345;43.964;25.340;2023-03-01T03:18:03;39.55;;;21.77;;
43835;SDS011;39345;43.964;25.340;2023-03-01T03:20:31;36.45;;;20.77;;
43835;SDS011;39345;43.964;25.340;2023-03-01T03:22:58;41.10;;;22.23;;
43835;SDS011;39345;43.964;25.340;2023-03-01T03:25:26;38.47;;;21.25;;
43835;SDS011;39345;43.964;25.340;2023-03-01T03:27:54;40.83;;;21.85;;
43835;SDS011;39345;43.964;25.340;2023-03-01T03:30:26;33.63;;;19.52;;
43835;SDS011;39345;43.964;25.340;2023-03-01T03:32:54;43.97;;;22.83;;
43835;SDS011;39345;43.964;25.340;2023-03-01T03:35:23;33.30;;;20.23;;
43835;SDS011;39345;43.964;25.340;2023-03-01T03:37:51;35.60;;;20.65;;
43835;SDS011;39345;43.964;25.340;2023-03-01T03:42:58;38.35;;;22.23;;
43835;SDS011;39345;43.964;25.340;2023-03-01T03:45:26;41.05;;;23.00;;
43835;SDS011;39345;43.964;25.340;2023-03-01T03:47:53;39.80;;;21.27;;
43835;SDS011;39345;43.964;25.340;2023-03-01T03:50:21;38.40;;;22.38;;
43835;SDS011;39345;43.964;25.340;2023-03-01T03:52:48;38.42;;;21.65;;
43835;SDS011;39345;43.964;25.340;2023-03-01T03:55:16;40.85;;;21.77;;
43835;SDS011;39345;43.964;25.340;2023-03-01T03:57:47;33.20;;;20.20;;
43835;SDS011;39345;43.964;25.340;2023-03-01T04:00:23;37.63;;;20.73;;
43835;SDS011;39345;43.964;25.340;2023-03-01T04:02:51;39.13;;;21.08;;
43835;SDS011;39345;43.964;25.340;2023-03-01T04:05:22;36.63;;;21.50;;
43835;SDS011;39345;43.964;25.340;2023-03-01T04:07:50;37.83;;;21.05;;
43835;SDS011;39345;43.964;25.340;2023-03-01T04:10:31;37.20;;;20.88;;
43835;SDS011;39345;43.964;25.340;2023-03-01T04:12:59;36.50;;;22.20;;
43835;SDS011;39345;43.964;25.340;2023-03-01T04:15:26;34.75;;;20.35;;
43835;SDS011;39345;43.964;25.340;2023-03-01T04:17:54;34.47;;;20.05;;
43835;SDS011;39345;43.964;25.340;2023-03-01T04:20:26;39.72;;;21.73;;
43835;SDS011;39345;43.964;25.340;2023-03-01T04:23:02;35.55;;;20.60;;
43835;SDS011;39345;43.964;25.340;2023-03-01T04:25:45;35.42;;;20.83;;
43835;SDS011;39345;43.964;25.340;2023-03-01T04:28:13;38.15;;;21.02;;
43835;SDS011;39345;43.964;25.340;2023-03-01T04:30:40;39.53;;;22.00;;
43835;SDS011;39345;43.964;25.340;2023-03-01T04:33:09;36.42;;;20.67;;
43835;SDS011;39345;43.964;25.340;2023-03-01T04:35:36;38.25;;;19.90;;
43835;SDS011;39345;43.964;25.340;2023-03-01T04:38:05;39.35;;;22.17;;
43835;SDS011;39345;43.964;25.340;2023-03-01T04:40:33;39.10;;;22.60;;
43835;SDS011;39345;43.964;25.340;2023-03-01T04:43:00;40.42;;;23.27;;
43835;SDS011;39345;43.964;25.340;2023-03-01T04:45:28;39.30;;;22.17;;
43835;SDS011;39345;43.964;25.340;2023-03-01T04:47:56;42.95;;;23.05;;
43835;SDS011;39345;43.964;25.340;2023-03-01T04:50:24;42.30;;;22.67;;
43835;SDS011;39345;43.964;25.340;2023-03-01T04:52:52;39.80;;;22.95;;
43835;SDS011;39345;43.964;25.340;2023-03-01T04:55:19;43.78;;;23.38;;
43835;SDS011;39345;43.964;25.340;2023-03-01T04:57:47;41.28;;;21.95;;
43835;SDS011;39345;43.964;25.340;2023-03-01T05:00:14;40.90;;;22.40;;
43835;SDS011;39345;43.964;25.340;2023-03-01T05:02:49;42.47;;;21.88;;
43835;SDS011;39345;43.964;25.340;2023-03-01T05:05:24;44.10;;;23.10;;
43835;SDS011;39345;43.964;25.340;2023-03-01T05:07:53;42.20;;;23.83;;
43835;SDS011;39345;43.964;25.340;2023-03-01T05:10:22;43.53;;;24.98;;
43835;SDS011;39345;43.964;25.340;2023-03-01T05:12:50;41.15;;;23.80;;
43835;SDS011;39345;43.964;25.340;2023-03-01T05:15:18;39.10;;;22.90;;
43835;SDS011;39345;43.964;25.340;2023-03-01T05:17:48;42.42;;;23.95;;
43835;SDS011;39345;43.964;25.340;2023-03-01T05:20:16;42.78;;;24.60;;
43835;SDS011;39345;43.964;25.340;2023-03-01T05:22:43;44.53;;;24.08;;
43835;SDS011;39345;43.964;25.340;2023-03-01T05:25:11;41.17;;;23.70;;
43835;SDS011;39345;43.964;25.340;2023-03-01T05:27:40;44.08;;;23.63;;
43835;SDS011;39345;43.964;25.340;2023-03-01T05:30:08;46.42;;;25.52;;
43835;SDS011;39345;43.964;25.340;2023-03-01T05:32:44;39.13;;;22.70;;
43835;SDS011;39345;43.964;25.340;2023-03-01T05:35:12;40.67;;;23.27;;
43835;SDS011;39345;43.964;25.340;2023-03-01T05:37:43;44.17;;;24.30;;
43835;SDS011;39345;43.964;25.340;2023-03-01T05:40:12;45.35;;;24.63;;
43835;SDS011;39345;43.964;25.340;2023-03-01T05:42:45;44.67;;;23.67;;
43835;SDS011;39345;43.964;25.340;2023-03-01T05:45:13;43.97;;;24.02;;
43835;SDS011;39345;43.964;25.340;2023-03-01T05:47:41;42.13;;;23.50;;
43835;SDS011;39345;43.964;25.340;2023-03-01T05:52:40;40.78;;;23.08;;
43835;SDS011;39345;43.964;25.340;2023-03-01T05:55:07;40.50;;;22.48;;
43835;SDS011;39345;43.964;25.340;2023-03-01T05:57:35;41.20;;;22.52;;
43835;SDS011;39345;43.964;25.340;2023-03-01T06:00:02;42.63;;;24.30;;
43835;SDS011;39345;43.964;25.340;2023-03-01T06:02:37;43.75;;;24.77;;
43835;SDS011;39345;43.964;25.340;2023-03-01T06:05:06;43.08;;;23.75;;
43835;SDS011;39345;43.964;25.340;2023-03-01T06:07:34;49.50;;;25.67;;
43835;SDS011;39345;43.964;25.340;2023-03-01T06:10:02;43.00;;;24.38;;
43835;SDS011;39345;43.964;25.340;2023-03-01T06:12:31;40.22;;;21.90;;
43835;SDS011;39345;43.964;25.340;2023-03-01T06:14:59;41.35;;;21.88;;
43835;SDS011;39345;43.964;25.340;2023-03-01T06:17:28;35.08;;;19.17;;
43835;SDS011;39345;43.964;25.340;2023-03-01T06:19:56;40.90;;;20.73;;
43835;SDS011;39345;43.964;25.340;2023-03-01T06:22:24;40.25;;;23.00;;
43835;SDS011;39345;43.964;25.340;2023-03-01T06:24:51;39.97;;;22.77;;
43835;SDS011;39345;43.964;25.340;2023-03-01T06:27:19;41.75;;;23.08;;
43835;SDS011;39345;43.964;25.340;2023-03-01T06:29:46;41.70;;;22.98;;
43835;SDS011;39345;43.964;25.340;2023-03-01T06:32:15;37.78;;;20.50;;
43835;SDS011;39345;43.964;25.340;2023-03-01T06:34:42;41.20;;;21.42;;
43835;SDS011;39345;43.964;25.340;2023-03-01T06:37:10;39.83;;;21.52;;
43835;SDS011;39345;43.964;25.340;2023-03-01T06:39:38;37.10;;;20.58;;
43835;SDS011;39345;43.964;25.340;2023-03-01T06:42:06;40.05;;;22.15;;
43835;SDS011;39345;43.964;25.340;2023-03-01T06:44:34;42.33;;;23.13;;
43835;SDS011;39345;43.964;25.340;2023-03-01T06:47:01;45.13;;;27.00;;
43835;SDS011;39345;43.964;25.340;2023-03-01T06:49:29;41.38;;;25.38;;
43835;SDS011;39345;43.964;25.340;2023-03-01T06:51:57;38.22;;;21.02;;
43835;SDS011;39345;43.964;25.340;2023-03-01T06:54:24;37.90;;;21.10;;
43835;SDS011;39345;43.964;25.340;2023-03-01T06:56:52;37.23;;;21.00;;
43835;SDS011;39345;43.964;25.340;2023-03-01T06:59:19;37.37;;;20.77;;
43835;SDS011;39345;43.964;25.340;2023-03-01T07:01:47;39.10;;;21.70;;
43835;SDS011;39345;43.964;25.340;2023-03-01T07:04:14;35.75;;;20.25;;
43835;SDS011;39345;43.964;25.340;2023-03-01T07:06:41;35.25;;;19.75;;
43835;SDS011;39345;43.964;25.340;2023-03-01T07:09:09;38.57;;;20.60;;
43835;SDS011;39345;43.964;25.340;2023-03-01T07:11:36;34.22;;;19.05;;
43835;SDS011;39345;43.964;25.340;2023-03-01T07:14:04;36.58;;;20.38;;
43835;SDS011;39345;43.964;25.340;2023-03-01T07:16:33;35.70;;;20.80;;
43835;SDS011;39345;43.964;25.340;2023-03-01T07:19:01;37.95;;;20.75;;
43835;SDS011;39345;43.964;25.340;2023-03-01T07:21:28;34.30;;;20.30;;
43835;SDS011;39345;43.964;25.340;2023-03-01T07:23:55;33.70;;;20.35;;
43835;SDS011;39345;43.964;25.340;2023-03-01T07:26:23;39.67;;;21.50;;
43835;SDS011;39345;43.964;25.340;2023-03-01T07:28:51;35.38;;;21.52;;
43835;SDS011;39345;43.964;25.340;2023-03-01T07:33:46;40.70;;;21.90;;
43835;SDS011;39345;43.964;25.340;2023-03-01T07:36:14;33.10;;;18.90;;
43835;SDS011;39345;43.964;25.340;2023-03-01T07:38:41;35.70;;;19.90;;
43835;SDS011;39345;43.964;25.340;2023-03-01T07:41:08;34.33;;;20.25;;
43835;SDS011;39345;43.964;25.340;2023-03-01T07:43:36;39.70;;;22.80;;
43835;SDS011;39345;43.964;25.340;2023-03-01T07:48:31;38.00;;;22.50;;
43835;SDS011;39345;43.964;25.340;2023-03-01T07:53:26;36.30;;;21.40;;
43835;SDS011;39345;43.964;25.340;2023-03-01T07:58:20;33.90;;;19.55;;
43835;SDS011;39345;43.964;25.340;2023-03-01T08:00:48;33.00;;;19.50;;
43835;SDS011;39345;43.964;25.340;2023-03-01T08:03:15;31.50;;;19.00;;
43835;SDS011;39345;43.964;25.340;2023-03-01T08:08:10;31.37;;;19.33;;
43835;SDS011;39345;43.964;25.340;2023-03-01T08:10:37;35.50;;;21.90;;
43835;SDS011;39345;43.964;25.340;2023-03-01T08:15:32;39.35;;;23.90;;
43835;SDS011;39345;43.964;25.340;2023-03-01T08:20:27;38.50;;;22.15;;
43835;SDS011;39345;43.964;25.340;2023-03-01T08:27:49;34.77;;;21.43;;
43835;SDS011;39345;43.964;25.340;2023-03-01T08:40:06;40.20;;;22.00;;
43835;SDS011;39345;43.964;25.340;2023-03-01T08:42:36;38.30;;;22.60;;
43835;SDS011;39345;43.964;25.340;2023-03-01T08:47:31;39.60;;;22.60;;
43835;SDS011;39345;43.964;25.340;2023-03-01T08:50:00;39.30;;;23.70;;
43835;SDS011;39345;43.964;25.340;2023-03-01T08:54:56;36.47;;;22.57;;
43835;SDS011;39345;43.964;25.340;2023-03-01T08:57:23;33.80;;;21.30;;
43835;SDS011;39345;43.964;25.340;2023-03-01T08:59:51;32.80;;;19.90;;
43835;SDS011;39345;43.964;25.340;2023-03-01T09:02:18;31.80;;;19.30;;
43835;SDS011;39345;43.964;25.340;2023-03-01T09:29:22;30.30;;;19.60;;
43835;SDS011;39345;43.964;25.340;2023-03-01T09:31:49;29.90;;;18.10;;
43835;SDS011;39345;43.964;25.340;2023-03-01T09:34:16;31.85;;;18.80;;
43835;SDS011;39345;43.964;25.340;2023-03-01T09:36:49;29.80;;;19.20;;
43835;SDS011;39345;43.964;25.340;2023-03-01T09:39:17;28.60;;;18.10;;
43835;SDS011;39345;43.964;25.340;2023-03-01T09:47:05;30.70;;;18.50;;
43835;SDS011;39345;43.964;25.340;2023-03-01T09:49:36;26.50;;;17.35;;
43835;SDS011;39345;43.964;25.340;2023-03-01T10:11:52;32.10;;;18.10;;
43835;SDS011;39345;43.964;25.340;2023-03-01T10:29:09;26.40;;;16.70;;
43835;SDS011;39345;43.964;25.340;2023-03-01T10:36:32;30.70;;;19.10;;
43835;SDS011;39345;43.964;25.340;2023-03-01T10:39:00;29.10;;;19.10;;
43835;SDS011;39345;43.964;25.340;2023-03-01T10:44:00;29.45;;;16.75;;
43835;SDS011;39345;43.964;25.340;2023-03-01T10:46:32;28.30;;;16.60;;
43835;SDS011;39345;43.964;25.340;2023-03-01T11:13:35;24.60;;;14.70;;
